Lanham, West Virginia
Current Conditions -  °F | °C
As of 2:54 PM on Friday 24 Oct 2014 (Local Time) from KCRW Reporting Station
Scattered Clouds Scattered Clouds  
Wind Chill: 60°   Ceiling: Unl
Heat Index: 60°   Visibility: 10mi
Dew Point: 42°   Wind: 5mph
Humidity: 51%   Direction: 180°S
Pressure: 30.06"   Gusts: NA
Location:  38.5242°N, 81.7911°W
Report Text: KCRW 241854Z 18004KT 10SM FEW040 SCT180 SCT300 16/06 A3006 RMK AO2 SLP178 T01560056
Loading
Personal Weather Stations






























Interactive Weather Map
Tropical Storm Tracking
New forecast layout! Learn more

10-Day Weather Forecast

Advertisements
Track Severe Weather on mobile